Main page
METAR-TAF:

METAR-TAF

Airports :

Zenata – Messali El Hadj Airport

Tlemcen, Algeria

latitude: 35-01N, longitude: 001-28W, elevation: 247 m

Current weather observation

The report was made 36 minutes ago, at 08:30 UTC
Calm wind
Temperature 28°C
Humidity 28%
Pressure 1017 hPa
Visibility 10 km or more
no clouds below 1500 m and no cumulonimbus

METAR: DAON 150830Z 00000KT CAVOK 28/08 Q1017

Time: 10:06 (09:06 UTC)

Forecast

The report was made 4 hours and 6 minutes ago, at 05:00 UTC
Forecast valid from 15 at 06 UTC to 16 at 06 UTC
Wind 2 kt from variable directions
Visibility 10 km or more
no clouds below 1500 m and no cumulonimbus
Becoming
from 15 at 09 UTC to 15 at 12 UTC
Wind 10 kt from the North/Northwest
Becoming
from 15 at 19 UTC to 15 at 22 UTC
Wind 2 kt from variable directions
Visibility 10 km or more
Few clouds at a height of 1300 ft
Scattered clouds at a height of 23300 ft

TAF: DAON 150500Z 1506/1606 VRB02KT CAVOK BECMG 1509/1512 34010KT BECMG 1519/1522 VRB02KT 9999 FEW013 SCT233

Weather observations and forecasts of more than 4000 airports (METAR and TAF reports).

The available stations are represented by yellow and red dots on the map.

Hover mouse over dot to see the name of the station.

Then click to see weather observations and forecasts.

To change the map : click on the green buttons with a black cross to zoom in, on the green button with a dash to zoom out, or on the green arrows for adjacent maps.


METAR-TAF: